createdAt,value
2018-04-18T00:00:44.817Z,12.63
2018-04-18T00:01:54.718Z,12.75
2018-04-18T00:03:04.909Z,12.72
2018-04-18T00:04:15.192Z,12.77
2018-04-18T00:05:25.086Z,12.72
2018-04-18T00:06:35.219Z,12.7
2018-04-18T00:07:45.085Z,12.66
2018-04-18T00:08:55.233Z,12.7
2018-04-18T00:10:05.174Z,12.63
2018-04-18T00:11:14.620Z,12.77
2018-04-18T00:12:24.484Z,12.68
2018-04-18T00:13:34.404Z,12.7
2018-04-18T00:14:44.294Z,12.77
2018-04-18T00:15:54.549Z,12.75
2018-04-18T00:17:04.704Z,12.72
2018-04-18T00:18:14.858Z,12.71
2018-04-18T00:19:24.777Z,12.6
2018-04-18T00:20:35.063Z,12.71
2018-04-18T00:21:45.202Z,12.62
2018-04-18T00:22:54.870Z,12.63
2018-04-18T00:24:05.107Z,12.62
2018-04-18T00:25:15.289Z,12.55
2018-04-18T00:26:25.571Z,12.64
2018-04-18T00:27:35.467Z,12.64
2018-04-18T00:28:45.626Z,12.59
2018-04-18T00:29:55.800Z,12.66
2018-04-18T00:31:05.930Z,12.6
2018-04-18T00:32:15.697Z,12.56
2018-04-18T00:33:25.952Z,12.53
2018-04-18T00:34:36.176Z,12.41
2018-04-18T00:35:46.372Z,12.38
2018-04-18T00:36:56.597Z,12.45
2018-04-18T00:38:06.762Z,12.35
2018-04-18T00:39:16.911Z,12.39
2018-04-18T00:40:27.096Z,12.31
2018-04-18T00:41:37.227Z,12.22
2018-04-18T00:42:47.400Z,12.16
2018-04-18T00:43:57.526Z,12.24
2018-04-18T00:45:07.667Z,12.17
2018-04-18T00:46:17.796Z,12.07
2018-04-18T00:47:27.997Z,12.09
2018-04-18T00:48:38.151Z,12.09
2018-04-18T00:49:48.437Z,12.04
2018-04-18T00:50:58.367Z,12.02
2018-04-18T00:52:08.512Z,11.91
2018-04-18T00:53:18.714Z,11.86
2018-04-18T00:54:28.878Z,11.91
2018-04-18T00:55:39.145Z,11.91
2018-04-18T00:56:49.307Z,11.84
2018-04-18T00:57:59.454Z,11.82
2018-04-18T00:59:09.588Z,11.74
2018-04-18T01:00:19.735Z,11.8
2018-04-18T01:01:29.930Z,11.74
2018-04-18T01:02:40.070Z,11.74
2018-04-18T01:03:50.255Z,11.68
2018-04-18T01:05:00.380Z,11.69
2018-04-18T01:06:10.591Z,11.71
2018-04-18T01:07:20.843Z,11.72
2018-04-18T01:08:31.082Z,11.59
2018-04-18T01:09:41.313Z,11.58
2018-04-18T01:10:51.458Z,11.61
2018-04-18T01:12:01.333Z,11.57
2018-04-18T01:13:11.500Z,11.52
2018-04-18T01:14:21.813Z,11.48
2018-04-18T01:15:31.971Z,11.45
2018-04-18T01:16:42.219Z,11.59
2018-04-18T01:17:52.411Z,11.49
2018-04-18T01:19:02.580Z,11.48
2018-04-18T01:20:12.835Z,11.39
2018-04-18T01:21:22.750Z,11.4
2018-04-18T01:22:32.958Z,11.35
2018-04-18T01:23:43.114Z,11.39
2018-04-18T01:24:53.259Z,11.46
2018-04-18T01:26:03.456Z,11.38
2018-04-18T01:27:13.637Z,11.33
2018-04-18T01:28:24.899Z,11.33
2018-04-18T01:29:35.076Z,11.33
2018-04-18T01:30:45.308Z,11.3
2018-04-18T01:31:55.481Z,11.3
2018-04-18T01:33:05.263Z,11.27
2018-04-18T01:34:14.788Z,11.24
2018-04-18T01:35:24.923Z,11.23
2018-04-18T01:36:35.057Z,11.2
2018-04-18T01:37:44.942Z,11.23
2018-04-18T01:38:55.092Z,11.24
2018-04-18T01:40:05.281Z,11.21
2018-04-18T01:41:15.460Z,11.24
2018-04-18T01:42:25.621Z,11.17
2018-04-18T01:43:35.769Z,11.21
2018-04-18T01:44:45.913Z,11.24
2018-04-18T01:45:56.054Z,11.23
2018-04-18T01:47:06.175Z,11.16
2018-04-18T01:48:16.315Z,11.15
2018-04-18T01:49:26.519Z,11.24
2018-04-18T01:50:36.701Z,11.17
2018-04-18T01:51:46.948Z,11.28
2018-04-18T01:52:57.112Z,11.17
2018-04-18T01:54:07.315Z,11.15
2018-04-18T01:55:17.465Z,11.21
2018-04-18T01:56:27.617Z,11.27
2018-04-18T01:57:37.729Z,11.23
2018-04-18T01:58:47.860Z,11.21
2018-04-18T01:59:57.740Z,11.1
2018-04-18T02:01:07.860Z,11.1
2018-04-18T02:02:17.792Z,11.05
2018-04-18T02:03:27.945Z,11.06
2018-04-18T02:04:38.068Z,11.12
2018-04-18T02:05:47.981Z,11.03
2018-04-18T02:06:58.096Z,11.06
2018-04-18T02:08:08.229Z,11.03
2018-04-18T02:09:18.256Z,10.95
2018-04-18T02:10:28.477Z,10.92
2018-04-18T02:11:38.701Z,10.88
2018-04-18T02:12:48.895Z,10.97
2018-04-18T02:13:59.136Z,10.91
2018-04-18T02:15:09.281Z,10.83
2018-04-18T02:16:19.530Z,10.91
2018-04-18T02:17:29.765Z,10.91
2018-04-18T02:18:39.632Z,10.9
2018-04-18T02:19:49.781Z,10.9
2018-04-18T02:20:59.972Z,10.9
2018-04-18T02:22:09.843Z,11
2018-04-18T02:23:19.776Z,11
2018-04-18T02:24:29.902Z,11.03
2018-04-18T02:25:40.065Z,11.03
2018-04-18T02:26:50.197Z,11.06
2018-04-18T02:28:00.354Z,11.03
2018-04-18T02:29:10.500Z,11.05
2018-04-18T02:30:20.733Z,11.17
2018-04-18T02:31:30.624Z,11.1
2018-04-18T02:32:40.841Z,11.21
2018-04-18T02:33:51.030Z,11.16
2018-04-18T02:35:01.255Z,11.2
2018-04-18T02:36:11.148Z,11.1
2018-04-18T02:37:21.320Z,11.24
2018-04-18T02:38:31.460Z,11.16
2018-04-18T02:39:41.337Z,11.28
2018-04-18T02:40:51.333Z,11.25
2018-04-18T02:42:01.606Z,11.16
2018-04-18T02:43:11.780Z,11.27
2018-04-18T02:44:21.996Z,11.24
2018-04-18T02:45:32.270Z,11.34
2018-04-18T02:46:42.174Z,11.3
2018-04-18T02:47:52.302Z,11.23
2018-04-18T02:49:02.447Z,11.28
2018-04-18T02:50:12.606Z,11.38
2018-04-18T02:51:22.828Z,11.33
2018-04-18T02:52:33.036Z,11.34
2018-04-18T02:53:43.203Z,11.28
2018-04-18T02:54:53.444Z,11.34
2018-04-18T02:56:03.619Z,11.21
2018-04-18T02:57:13.773Z,11.28
2018-04-18T02:58:23.914Z,11.24
2018-04-18T02:59:33.921Z,11.35
2018-04-18T03:00:44.089Z,11.24
2018-04-18T03:01:54.345Z,11.31
2018-04-18T03:03:04.653Z,11.21
2018-04-18T03:04:14.540Z,11.31
2018-04-18T03:05:24.712Z,11.28
2018-04-18T03:06:34.853Z,11.27
2018-04-18T03:07:44.993Z,11.28
2018-04-18T03:08:55.178Z,11.27
2018-04-18T03:10:05.330Z,11.33
2018-04-18T03:11:15.569Z,11.27
2018-04-18T03:12:25.744Z,11.28
2018-04-18T03:13:35.981Z,11.31
2018-04-18T03:14:46.203Z,11.25
2018-04-18T03:15:56.350Z,11.31
2018-04-18T03:17:06.505Z,11.3
2018-04-18T03:18:16.694Z,11.25
2018-04-18T03:19:26.857Z,11.23
2018-04-18T03:20:37.014Z,11.23
2018-04-18T03:21:47.231Z,11.13
2018-04-18T03:22:57.412Z,11.24
2018-04-18T03:24:07.568Z,11.21
2018-04-18T03:25:17.788Z,11.17
2018-04-18T03:26:28.102Z,11.2
2018-04-18T03:27:38.300Z,11.13
2018-04-18T03:28:48.533Z,11.21
2018-04-18T03:29:58.731Z,11.25
2018-04-18T03:31:08.866Z,11.13
2018-04-18T03:32:19.158Z,11.21
2018-04-18T03:33:29.334Z,11.17
2018-04-18T03:34:39.538Z,11.16
2018-04-18T03:35:49.719Z,11.12
2018-04-18T03:37:00.088Z,11.02
2018-04-18T03:38:10.292Z,11.15
2018-04-18T03:39:20.495Z,10.97
2018-04-18T03:40:30.730Z,11.05
2018-04-18T03:41:41.010Z,11.03
2018-04-18T03:42:50.882Z,11.03
2018-04-18T03:44:01.036Z,11.03
2018-04-18T03:45:11.185Z,11.02
2018-04-18T03:46:21.336Z,10.97
2018-04-18T03:47:31.749Z,11
2018-04-18T03:48:41.925Z,10.97
2018-04-18T03:49:52.068Z,10.92
2018-04-18T03:51:02.223Z,10.98
2018-04-18T03:52:12.454Z,10.95
2018-04-18T03:53:22.583Z,10.95
2018-04-18T03:54:32.711Z,11.05
2018-04-18T03:55:42.847Z,11.02
2018-04-18T03:56:53.007Z,11.06
2018-04-18T03:58:03.183Z,10.95
2018-04-18T03:59:13.330Z,10.97
2018-04-18T04:00:23.508Z,10.92
2018-04-18T04:01:33.754Z,10.92
2018-04-18T04:02:44.056Z,10.9
2018-04-18T04:03:54.219Z,10.88
2018-04-18T04:05:04.428Z,10.97
2018-04-18T04:06:14.653Z,10.88
2018-04-18T04:07:24.859Z,10.87
2018-04-18T04:08:35.077Z,10.92
2018-04-18T04:09:45.328Z,10.91
2018-04-18T04:10:55.474Z,10.9
2018-04-18T04:12:05.791Z,10.85
2018-04-18T04:13:15.944Z,10.9
2018-04-18T04:14:26.167Z,10.88
2018-04-18T04:15:36.377Z,10.91
2018-04-18T04:16:46.648Z,10.87
2018-04-18T04:17:56.920Z,10.85
2018-04-18T04:19:07.128Z,10.88
2018-04-18T04:20:17.289Z,10.8
2018-04-18T04:21:27.541Z,10.88
2018-04-18T04:22:37.751Z,10.85
2018-04-18T04:23:47.979Z,10.8
2018-04-18T04:24:58.155Z,10.83
2018-04-18T04:26:08.417Z,10.88
2018-04-18T04:27:18.756Z,10.85
2018-04-18T04:28:28.905Z,10.84
2018-04-18T04:29:39.092Z,10.88
2018-04-18T04:30:49.243Z,10.79
2018-04-18T04:31:59.543Z,10.72
2018-04-18T04:33:09.313Z,10.69
2018-04-18T04:34:19.448Z,10.79
2018-04-18T04:35:29.620Z,10.7
2018-04-18T04:36:39.910Z,10.7
2018-04-18T04:37:49.813Z,10.67
2018-04-18T04:39:00.286Z,10.7
2018-04-18T04:40:10.532Z,10.69
2018-04-18T04:41:20.685Z,10.69
2018-04-18T04:42:30.878Z,10.72
2018-04-18T04:43:41.066Z,10.69
2018-04-18T04:44:51.605Z,10.65
2018-04-18T04:46:02.104Z,10.65
2018-04-18T04:47:12.341Z,10.69
2018-04-18T04:48:22.224Z,10.7
2018-04-18T04:49:32.439Z,10.7
2018-04-18T04:50:42.584Z,10.7
2018-04-18T04:51:52.729Z,10.72
2018-04-18T04:53:02.866Z,10.72
2018-04-18T04:54:13.054Z,10.76
2018-04-18T04:55:23.257Z,10.69
2018-04-18T04:56:33.561Z,10.77
2018-04-18T04:57:43.819Z,10.73
2018-04-18T04:58:53.799Z,10.75
2018-04-18T05:00:03.929Z,10.7
2018-04-18T05:01:14.085Z,10.76
2018-04-18T05:02:24.266Z,10.77
2018-04-18T05:03:34.499Z,10.77
2018-04-18T05:04:44.722Z,10.79
2018-04-18T05:05:55.008Z,10.8
2018-04-18T05:07:05.199Z,10.83
2018-04-18T05:08:15.462Z,10.76
2018-04-18T05:09:25.655Z,10.72
2018-04-18T05:10:35.802Z,10.79
2018-04-18T05:11:45.998Z,10.75
2018-04-18T05:12:56.380Z,10.73
2018-04-18T05:14:06.638Z,10.67
2018-04-18T05:15:16.771Z,10.66
2018-04-18T05:16:26.990Z,10.8
2018-04-18T05:17:37.195Z,10.77
2018-04-18T05:18:47.436Z,10.7
2018-04-18T05:19:57.693Z,10.69
2018-04-18T05:21:07.934Z,10.87
2018-04-18T05:22:18.191Z,10.87
2018-04-18T05:23:28.369Z,10.83
2018-04-18T05:24:38.524Z,10.84
2018-04-18T05:25:48.408Z,10.84
2018-04-18T05:26:58.537Z,10.92
2018-04-18T05:28:08.715Z,10.87
2018-04-18T05:29:18.841Z,10.91
2018-04-18T05:30:28.707Z,10.9
2018-04-18T05:31:38.947Z,10.84
2018-04-18T05:32:49.117Z,10.83
2018-04-18T05:33:59.334Z,10.88
2018-04-18T05:35:09.553Z,10.95
2018-04-18T05:36:19.742Z,10.85
2018-04-18T05:37:30.046Z,10.87
2018-04-18T05:38:40.205Z,10.98
2018-04-18T05:39:50.374Z,11.08
2018-04-18T05:41:00.664Z,11.09
2018-04-18T05:42:10.900Z,11.15
2018-04-18T05:43:21.120Z,11.1
2018-04-18T05:44:31.404Z,11.16
2018-04-18T05:45:41.662Z,11.25
2018-04-18T05:46:51.831Z,11.3
2018-04-18T05:48:01.978Z,11.38
2018-04-18T05:49:12.156Z,11.38
2018-04-18T05:50:22.389Z,11.31
2018-04-18T05:51:32.601Z,11.48
2018-04-18T05:52:42.496Z,11.46
2018-04-18T05:53:52.437Z,11.52
2018-04-18T05:55:02.330Z,11.64
2018-04-18T05:56:12.200Z,11.58
2018-04-18T05:57:22.068Z,11.68
2018-04-18T05:58:32.212Z,11.68
2018-04-18T05:59:42.371Z,11.79
2018-04-18T06:00:52.299Z,11.74
2018-04-18T06:02:02.523Z,11.8
2018-04-18T06:03:12.690Z,11.8
2018-04-18T06:04:22.654Z,11.83
2018-04-18T06:05:32.817Z,11.9
2018-04-18T06:06:42.963Z,12.01
2018-04-18T06:07:53.144Z,12.02
2018-04-18T06:09:03.269Z,12.09
2018-04-18T06:10:13.418Z,12.13
2018-04-18T06:11:23.635Z,12.04
2018-04-18T06:12:33.516Z,12.2
2018-04-18T06:13:43.664Z,12.23
2018-04-18T06:14:53.805Z,12.24
2018-04-18T06:16:03.951Z,12.22
2018-04-18T06:17:14.213Z,12.22
2018-04-18T06:18:24.415Z,12.22
2018-04-18T06:19:34.606Z,12.23
2018-04-18T06:20:44.799Z,12.29
2018-04-18T06:21:54.952Z,12.35
2018-04-18T06:23:05.097Z,12.39
2018-04-18T06:24:15.257Z,12.37
2018-04-18T06:25:25.396Z,12.45
2018-04-18T06:26:35.563Z,12.44
2018-04-18T06:27:45.443Z,12.38
2018-04-18T06:28:55.595Z,12.44
2018-04-18T06:30:05.755Z,12.47
2018-04-18T06:31:15.900Z,12.44
2018-04-18T06:32:26.075Z,12.55
2018-04-18T06:33:36.305Z,12.57
2018-04-18T06:34:46.342Z,12.6
2018-04-18T06:35:56.275Z,12.6
2018-04-18T06:37:06.422Z,12.62
2018-04-18T06:38:16.622Z,12.6
2018-04-18T06:39:26.818Z,12.71
2018-04-18T06:40:37.177Z,12.72
2018-04-18T06:41:47.064Z,12.85
2018-04-18T06:42:57.257Z,12.81
2018-04-18T06:44:07.411Z,12.81
2018-04-18T06:45:17.307Z,12.81
2018-04-18T06:46:27.430Z,12.9
2018-04-18T06:47:37.591Z,12.95
2018-04-18T06:48:47.781Z,13.03
2018-04-18T06:49:58.014Z,13.03
2018-04-18T06:51:08.233Z,13.09
2018-04-18T06:52:18.438Z,13.12
2018-04-18T06:53:28.644Z,13.13
2018-04-18T06:54:38.788Z,13.16
2018-04-18T06:55:49.014Z,13.3
2018-04-18T06:56:59.755Z,13.31
2018-04-18T06:58:09.957Z,13.44
2018-04-18T06:59:20.143Z,13.4
2018-04-18T07:00:30.403Z,13.55
2018-04-18T07:01:40.601Z,13.58
2018-04-18T07:02:50.796Z,13.59
2018-04-18T07:04:00.988Z,13.63
2018-04-18T07:05:11.146Z,13.63
2018-04-18T07:06:21.307Z,13.59
2018-04-18T07:07:31.461Z,13.76
2018-04-18T07:08:41.641Z,13.71
2018-04-18T07:09:51.803Z,13.79
2018-04-18T07:11:01.973Z,13.81
2018-04-18T07:12:12.214Z,13.84
2018-04-18T07:13:22.523Z,13.89
2018-04-18T07:14:32.732Z,13.92
2018-04-18T07:15:42.900Z,13.99
2018-04-18T07:16:53.170Z,14.04
2018-04-18T07:18:03.341Z,14
2018-04-18T07:19:13.544Z,14.03
2018-04-18T07:20:23.709Z,14.07
2018-04-18T07:21:33.930Z,14.1
2018-04-18T07:22:44.133Z,14.1
2018-04-18T07:23:54.331Z,14.13
2018-04-18T07:25:04.582Z,14.19
2018-04-18T07:26:14.828Z,14.18
2018-04-18T07:27:26.091Z,14.25
2018-04-18T07:28:36.239Z,14.28
2018-04-18T07:29:46.414Z,14.37
2018-04-18T07:30:56.654Z,14.4
2018-04-18T07:32:06.892Z,14.51
2018-04-18T07:33:17.164Z,14.56
2018-04-18T07:34:26.981Z,14.67
2018-04-18T07:35:37.158Z,14.6
2018-04-18T07:36:47.301Z,14.62
2018-04-18T07:37:57.452Z,14.78
2018-04-18T07:39:07.623Z,14.9
2018-04-18T07:40:17.846Z,14.88
2018-04-18T07:41:28.178Z,14.98
2018-04-18T07:42:38.349Z,15.08
2018-04-18T07:43:48.544Z,15.14
2018-04-18T07:44:58.778Z,15.24
2018-04-18T07:46:09.013Z,15.27
2018-04-18T07:47:19.223Z,15.33
2018-04-18T07:48:29.143Z,15.4
2018-04-18T07:49:39.294Z,15.58
2018-04-18T07:50:49.554Z,15.61
2018-04-18T07:51:59.763Z,15.76
2018-04-18T07:53:09.930Z,15.82
2018-04-18T07:54:20.093Z,16.02
2018-04-18T07:55:30.150Z,16.27
2018-04-18T07:56:40.334Z,16.32
2018-04-18T07:57:50.513Z,16.49
2018-04-18T07:59:00.715Z,16.68
2018-04-18T08:00:10.900Z,16.98
2018-04-18T08:01:21.077Z,17.72
2018-04-18T08:02:31.214Z,18.56
2018-04-18T08:03:41.401Z,19.48
2018-04-18T08:04:51.553Z,20.38
2018-04-18T08:06:01.722Z,21.19
2018-04-18T08:07:11.910Z,21.9
2018-04-18T08:08:22.109Z,22.46
2018-04-18T08:09:32.261Z,23.02
2018-04-18T08:10:42.435Z,23.42
2018-04-18T08:11:52.588Z,23.91
2018-04-18T08:13:02.736Z,24.32
2018-04-18T08:14:12.930Z,24.75
2018-04-18T08:15:23.427Z,25.05
2018-04-18T08:16:34.029Z,25.29
2018-04-18T08:17:44.196Z,25.47
2018-04-18T08:18:54.334Z,25.81
2018-04-18T08:20:04.512Z,26.18
2018-04-18T08:21:14.744Z,26.27
2018-04-18T08:22:24.960Z,26.49
2018-04-18T08:23:35.176Z,26.75
2018-04-18T08:24:45.334Z,26.96
2018-04-18T08:25:55.478Z,27.01
2018-04-18T08:27:05.656Z,27.26
2018-04-18T08:28:15.820Z,27.42
2018-04-18T08:29:25.829Z,27.68
2018-04-18T08:30:35.751Z,27.76
2018-04-18T08:31:45.906Z,27.76
2018-04-18T08:32:56.076Z,27.83
2018-04-18T08:34:06.417Z,27.85
2018-04-18T08:35:16.630Z,27.83
2018-04-18T08:36:26.762Z,27.63
2018-04-18T08:37:36.965Z,27.45
2018-04-18T08:38:47.154Z,27.28
2018-04-18T08:39:57.356Z,27.26
2018-04-18T08:41:07.492Z,27.33
2018-04-18T08:42:17.671Z,27.42
2018-04-18T08:43:27.833Z,27.35
2018-04-18T08:44:38.030Z,27.2
2018-04-18T08:45:48.426Z,27.33
2018-04-18T08:46:58.638Z,27.3
2018-04-18T08:48:08.911Z,27.52
2018-04-18T08:49:19.095Z,27.7
2018-04-18T08:50:29.390Z,28.01
2018-04-18T08:51:39.551Z,28.31
2018-04-18T08:52:49.728Z,28.7
2018-04-18T08:53:59.882Z,28.8
2018-04-18T08:55:12.127Z,29.16
2018-04-18T08:56:22.343Z,29.33
2018-04-18T08:57:32.609Z,29.54
2018-04-18T08:58:42.876Z,29.58
2018-04-18T08:59:53.066Z,29.72
2018-04-18T09:01:03.249Z,29.88
2018-04-18T09:02:13.559Z,30
2018-04-18T09:03:23.813Z,30.07
2018-04-18T09:04:34.009Z,30.08
2018-04-18T09:05:44.172Z,30.04
2018-04-18T09:06:54.416Z,30.08
2018-04-18T09:08:05.841Z,30.02
2018-04-18T09:09:16.008Z,30.11
2018-04-18T09:10:26.213Z,30.16
2018-04-18T09:11:36.420Z,30.14
2018-04-18T09:12:47.406Z,30.16
2018-04-18T09:13:58.607Z,30.1
2018-04-18T09:15:10.418Z,30.12
2018-04-18T09:16:20.367Z,30.07
2018-04-18T09:17:34.314Z,30.16
2018-04-18T09:18:45.872Z,30.1
2018-04-18T09:19:59.189Z,30.12
2018-04-18T09:21:09.375Z,30.17
2018-04-18T09:22:20.773Z,30.25
2018-04-18T09:23:30.682Z,30
2018-04-18T09:25:53.262Z,29.76
2018-04-18T09:27:03.410Z,29.88
2018-04-18T09:28:13.655Z,29.99
2018-04-18T09:29:23.843Z,30.11
2018-04-18T09:30:33.786Z,30.25
2018-04-18T09:31:43.954Z,30.22
2018-04-18T09:32:54.147Z,30.17
2018-04-18T09:34:04.053Z,30.26
2018-04-18T09:35:16.713Z,30.35
2018-04-18T09:36:26.939Z,30.26
2018-04-18T09:39:20.794Z,30.59
2018-04-18T09:40:31.007Z,30.56
2018-04-18T09:41:41.209Z,30.74
2018-04-18T09:42:51.423Z,30.9
2018-04-18T09:44:04.671Z,31.05
2018-04-18T09:45:15.157Z,31.2
2018-04-18T09:46:25.399Z,31.27
2018-04-18T09:47:35.590Z,31.25
2018-04-18T09:48:45.779Z,31.3
2018-04-18T09:49:55.942Z,31.27
2018-04-18T09:51:06.112Z,31.28
2018-04-18T09:52:16.380Z,31.1
2018-04-18T09:53:26.717Z,30.91
2018-04-18T09:54:36.910Z,30.7
2018-04-18T09:55:47.098Z,30.47
2018-04-18T09:56:57.340Z,30.47
2018-04-18T09:58:07.532Z,30.56
2018-04-18T09:59:17.780Z,30.56
2018-04-18T10:00:27.675Z,30.57
2018-04-18T10:01:37.864Z,30.41
2018-04-18T10:02:48.056Z,30.33
2018-04-18T10:03:58.434Z,30.29
2018-04-18T10:05:09.289Z,30.16
2018-04-18T10:06:19.653Z,30.1
2018-04-18T10:07:29.816Z,30.11
2018-04-18T10:08:40.093Z,30.22
2018-04-18T10:09:50.390Z,30.35
2018-04-18T10:11:00.714Z,30.38
2018-04-18T10:12:10.908Z,30.48
2018-04-18T10:13:21.080Z,30.63
2018-04-18T10:14:31.252Z,30.63
2018-04-18T10:15:41.154Z,30.78
2018-04-18T10:16:51.385Z,30.81
2018-04-18T10:18:01.579Z,30.85
2018-04-18T10:19:12.995Z,30.96
2018-04-18T10:20:22.809Z,31.13
2018-04-18T10:22:46.984Z,31.32
2018-04-18T10:23:57.409Z,31.28
2018-04-18T10:25:07.425Z,31.19
2018-04-18T10:30:07.469Z,30.07
2018-04-18T10:31:17.721Z,29.89
2018-04-18T10:32:27.991Z,29.7
2018-04-18T10:33:40.636Z,29.77
2018-04-18T10:34:50.789Z,29.97
2018-04-18T10:36:01.012Z,30.07
2018-04-18T10:37:11.244Z,30.37
2018-04-18T10:38:23.287Z,30.59
2018-04-18T10:39:34.459Z,30.66
2018-04-18T10:40:47.877Z,30.61
2018-04-18T10:41:58.037Z,30.64
2018-04-18T10:44:23.969Z,30.57
2018-04-18T10:46:47.409Z,30.29
2018-04-18T10:50:33.466Z,30.54
2018-04-18T10:55:32.286Z,30.38
2018-04-18T10:59:13.462Z,30.35
2018-04-18T11:04:12.301Z,29.58
2018-04-18T11:05:22.481Z,29.67
2018-04-18T11:20:31.061Z,30.72
2018-04-18T11:21:41.266Z,30.61
2018-04-18T12:06:07.739Z,30.3
2018-04-18T12:07:18.004Z,30.23
2018-04-18T12:08:29.164Z,30.12
2018-04-18T12:09:39.360Z,30.17
2018-04-18T12:10:49.571Z,30.16
2018-04-18T12:11:59.756Z,30.12
2018-04-18T12:13:09.966Z,30.08
2018-04-18T12:14:20.190Z,30.19
2018-04-18T12:15:30.440Z,30.27
2018-04-18T12:16:40.750Z,30.25
2018-04-18T12:17:50.942Z,30.1
2018-04-18T12:19:01.122Z,30.16
2018-04-18T12:20:11.310Z,30.16
2018-04-18T12:21:21.229Z,30.17
2018-04-18T12:22:30.799Z,30.25
2018-04-18T12:23:41.015Z,30.35
2018-04-18T12:24:51.243Z,30.2
2018-04-18T12:26:01.434Z,30.16
2018-04-18T12:27:11.332Z,30.22
2018-04-18T12:28:21.620Z,30.04
2018-04-18T12:29:31.842Z,29.94
2018-04-18T12:30:42.006Z,29.67
2018-04-18T12:31:52.257Z,29.45
2018-04-18T12:33:02.232Z,29.23
2018-04-18T12:34:12.509Z,29.14
2018-04-18T12:35:22.690Z,29.1
2018-04-18T12:36:32.895Z,29.01
2018-04-18T12:37:43.182Z,29.01
2018-04-18T12:38:53.446Z,28.83
2018-04-18T12:40:03.657Z,28.8
2018-04-18T12:41:13.855Z,28.67
2018-04-18T12:42:24.053Z,28.56
2018-04-18T12:43:34.294Z,28.36
2018-04-18T12:44:44.482Z,28.23
2018-04-18T12:45:54.633Z,28.11
2018-04-18T12:47:04.819Z,27.94
2018-04-18T12:48:15.060Z,27.79
2018-04-18T12:49:25.365Z,27.89
2018-04-18T12:50:35.649Z,27.74
2018-04-18T12:51:45.846Z,27.63
2018-04-18T12:52:56.076Z,27.61
2018-04-18T12:54:06.254Z,27.64
2018-04-18T12:55:16.187Z,27.55
2018-04-18T12:56:26.009Z,27.55
2018-04-18T12:57:36.627Z,27.45
2018-04-18T12:58:46.928Z,27.24
2018-04-18T12:59:57.166Z,26.98
2018-04-18T13:01:08.306Z,26.9
2018-04-18T13:02:18.473Z,26.92
2018-04-18T13:03:28.655Z,26.86
2018-04-18T13:04:38.941Z,26.86
2018-04-18T13:05:49.199Z,26.53
2018-04-18T13:06:59.372Z,26.51
2018-04-18T13:08:09.587Z,26.39
2018-04-18T13:09:19.817Z,26.36
2018-04-18T13:10:30.010Z,26.31
2018-04-18T13:11:39.986Z,26.21
2018-04-18T13:12:50.279Z,26.12
2018-04-18T13:14:00.572Z,26.03
2018-04-18T13:15:10.831Z,25.93
2018-04-18T13:16:21.010Z,25.88
2018-04-18T13:17:31.211Z,25.74
2018-04-18T13:18:41.514Z,25.74
2018-04-18T13:19:51.706Z,25.69
2018-04-18T13:21:01.940Z,25.65
2018-04-18T13:22:12.144Z,25.69
2018-04-18T13:23:22.428Z,25.54
2018-04-18T13:24:32.656Z,25.44
2018-04-18T13:25:42.877Z,25.42
2018-04-18T13:26:53.093Z,25.43
2018-04-18T13:28:03.310Z,25.34
2018-04-18T13:29:13.493Z,25.32
2018-04-18T13:30:23.692Z,25.39
2018-04-18T13:31:33.902Z,25.39
2018-04-18T13:32:44.079Z,25.39
2018-04-18T13:33:54.331Z,25.4
2018-04-18T13:35:04.575Z,25.36
2018-04-18T13:36:14.792Z,25.36
2018-04-18T13:37:25.043Z,25.34
2018-04-18T13:38:35.239Z,25.22
2018-04-18T13:39:45.491Z,25.25
2018-04-18T13:40:55.699Z,25.18
2018-04-18T13:42:05.926Z,25.1
2018-04-18T13:43:16.112Z,25.19
2018-04-18T13:44:26.060Z,25.19
2018-04-18T13:45:36.266Z,25.22
2018-04-18T13:46:46.441Z,25.24
2018-04-18T13:47:56.579Z,25.24
2018-04-18T13:49:06.906Z,25.22
2018-04-18T13:50:17.141Z,25.15
2018-04-18T13:51:27.655Z,25.06
2018-04-18T13:52:37.888Z,25.06
2018-04-18T13:53:48.337Z,25.05
2018-04-18T13:54:59.004Z,24.95
2018-04-18T13:56:09.749Z,24.97
2018-04-18T13:57:19.954Z,24.97
2018-04-18T13:58:30.587Z,24.85
2018-04-18T13:59:40.784Z,24.87
2018-04-18T14:00:51.077Z,24.85
2018-04-18T14:02:01.264Z,24.84
2018-04-18T14:03:11.544Z,24.78
2018-04-18T14:04:22.011Z,24.73
2018-04-18T14:05:32.264Z,24.78
2018-04-18T14:06:42.459Z,24.65
2018-04-18T14:07:52.431Z,24.63
2018-04-18T14:09:02.735Z,24.62
2018-04-18T14:10:12.960Z,24.6
2018-04-18T14:11:23.145Z,24.6
2018-04-18T14:12:33.320Z,24.57
2018-04-18T14:13:43.521Z,24.47
2018-04-18T14:14:53.680Z,24.44
2018-04-18T14:16:03.862Z,24.38
2018-04-18T14:17:14.083Z,24.38
2018-04-18T14:18:24.241Z,24.45
2018-04-18T14:19:34.475Z,24.44
2018-04-18T14:20:44.439Z,24.25
2018-04-18T14:21:54.789Z,24.25
2018-04-18T14:23:04.986Z,24.17
2018-04-18T14:24:15.196Z,24.09
2018-04-18T14:25:25.464Z,24.01
2018-04-18T14:26:35.782Z,23.94
2018-04-18T14:27:46.201Z,23.82
2018-04-18T14:28:56.403Z,23.77
2018-04-18T14:30:06.646Z,23.85
2018-04-18T14:31:16.829Z,23.91
2018-04-18T14:32:26.756Z,23.92
2018-04-18T14:33:37.087Z,23.92
2018-04-18T14:34:47.287Z,23.88
2018-04-18T14:35:57.678Z,24
2018-04-18T14:37:07.896Z,23.97
2018-04-18T14:38:18.099Z,23.98
2018-04-18T14:39:28.322Z,24.01
2018-04-18T14:40:38.514Z,23.94
2018-04-18T14:41:48.693Z,23.94
2018-04-18T14:42:58.926Z,23.94
2018-04-18T14:44:09.125Z,23.92
2018-04-18T14:45:19.326Z,23.9
2018-04-18T14:46:29.549Z,23.83
2018-04-18T14:47:39.860Z,23.83
2018-04-18T14:48:50.085Z,23.83
2018-04-18T14:50:00.266Z,23.8
2018-04-18T14:51:10.516Z,23.8
2018-04-18T14:52:20.708Z,23.79
2018-04-18T14:53:30.909Z,23.77
2018-04-18T14:54:41.091Z,23.79
2018-04-18T14:55:51.325Z,23.75
2018-04-18T14:57:01.527Z,23.72
2018-04-18T14:58:11.780Z,23.64
2018-04-18T14:59:22.056Z,23.7
2018-04-18T15:00:31.987Z,23.61
2018-04-18T15:01:42.165Z,23.58
2018-04-18T15:02:52.389Z,23.64
2018-04-18T15:04:02.599Z,23.57
2018-04-18T15:05:12.879Z,23.57
2018-04-18T15:06:23.210Z,23.53
2018-04-18T15:07:33.446Z,23.46
2018-04-18T15:08:43.730Z,23.4
2018-04-18T15:09:54.023Z,23.4
2018-04-18T15:11:04.314Z,23.35
2018-04-18T15:12:14.497Z,23.39
2018-04-18T15:13:24.724Z,23.42
2018-04-18T15:14:34.944Z,23.36
2018-04-18T15:15:45.170Z,23.36
2018-04-18T15:16:55.394Z,23.35
2018-04-18T15:18:05.600Z,23.38
2018-04-18T15:19:15.880Z,23.36
2018-04-18T15:20:26.117Z,23.38
2018-04-18T15:21:36.408Z,23.36
2018-04-18T15:22:46.815Z,23.39
2018-04-18T15:23:57.162Z,23.38
2018-04-18T15:25:07.433Z,23.39
2018-04-18T15:26:17.641Z,23.39
2018-04-18T15:27:27.864Z,23.35
2018-04-18T15:28:38.489Z,23.36
2018-04-18T15:29:48.729Z,23.36
2018-04-18T15:30:58.936Z,23.39
2018-04-18T15:32:09.162Z,23.38
2018-04-18T15:33:19.405Z,23.35
2018-04-18T15:34:29.685Z,23.38
2018-04-18T15:35:39.970Z,23.4
2018-04-18T15:36:50.167Z,23.38
2018-04-18T15:38:00.475Z,23.38
2018-04-18T15:39:10.762Z,23.38
2018-04-18T15:40:20.943Z,23.27
2018-04-18T15:41:31.173Z,23.23
2018-04-18T15:42:41.448Z,23.2
2018-04-18T15:43:51.399Z,23.23
2018-04-18T15:45:01.582Z,23.17
2018-04-18T15:46:11.832Z,23.14
2018-04-18T15:47:22.155Z,23.08
2018-04-18T15:48:32.393Z,23.16
2018-04-18T15:49:42.669Z,23.09
2018-04-18T15:50:52.853Z,23.17
2018-04-18T15:52:03.121Z,23.06
2018-04-18T15:53:13.204Z,23.03
2018-04-18T15:54:23.419Z,23.01
2018-04-18T15:55:33.615Z,23.02
2018-04-18T15:56:43.862Z,23.02
2018-04-18T15:57:54.137Z,23.01
2018-04-18T15:59:03.969Z,23.06
2018-04-18T16:00:14.163Z,22.98
2018-04-18T16:01:24.405Z,22.98
2018-04-18T16:02:34.217Z,22.98
2018-04-18T16:03:44.412Z,22.89
2018-04-18T16:04:54.633Z,23.01
2018-04-18T16:06:04.851Z,22.93
2018-04-18T16:07:14.845Z,22.89
2018-04-18T16:08:25.105Z,22.87
2018-04-18T16:09:35.393Z,22.85
2018-04-18T16:10:45.657Z,22.8
2018-04-18T16:11:55.859Z,22.73
2018-04-18T16:13:06.079Z,22.67
2018-04-18T16:14:16.262Z,22.68
2018-04-18T16:15:26.460Z,22.65
2018-04-18T16:16:36.702Z,22.64
2018-04-18T16:17:46.636Z,22.46
2018-04-18T16:18:56.645Z,22.6
2018-04-18T16:20:06.927Z,22.63
2018-04-18T16:21:17.126Z,22.57
2018-04-18T16:22:27.329Z,22.52
2018-04-18T16:23:37.597Z,22.48
2018-04-18T16:24:47.858Z,22.46
2018-04-18T16:25:58.113Z,22.49
2018-04-18T16:27:08.301Z,22.46
2018-04-18T16:28:18.498Z,22.39
2018-04-18T16:29:28.734Z,22.43